sensor_id;sensor_type;location;lat;lon;timestamp;pressure;altitude;pressure_sealevel;temperature
67966;BMP280;54749;47.850;9.002;2022-10-28T00:00:12;96903.16;;;9.48
67966;BMP280;54749;47.850;9.002;2022-10-28T00:03:00;96897.63;;;9.42
67966;BMP280;54749;47.850;9.002;2022-10-28T00:05:28;96899.78;;;9.34
67966;BMP280;54749;47.850;9.002;2022-10-28T00:07:55;96890.84;;;9.28
67966;BMP280;54749;47.850;9.002;2022-10-28T00:10:22;96906.97;;;9.26
67966;BMP280;54749;47.850;9.002;2022-10-28T00:12:48;96892.78;;;9.24
67966;BMP280;54749;47.850;9.002;2022-10-28T00:15:15;96898.72;;;9.23
67966;BMP280;54749;47.850;9.002;2022-10-28T00:17:42;96897.19;;;9.20
67966;BMP280;54749;47.850;9.002;2022-10-28T00:20:09;96898.34;;;9.15
67966;BMP280;54749;47.850;9.002;2022-10-28T00:22:36;96910.13;;;9.14
67966;BMP280;54749;47.850;9.002;2022-10-28T00:25:03;96898.41;;;9.13
67966;BMP280;54749;47.850;9.002;2022-10-28T00:27:30;96894.28;;;9.12
67966;BMP280;54749;47.850;9.002;2022-10-28T00:29:59;96900.16;;;9.13
67966;BMP280;54749;47.850;9.002;2022-10-28T00:32:29;96900.16;;;9.13
67966;BMP280;54749;47.850;9.002;2022-10-28T00:34:56;96895.91;;;9.13
67966;BMP280;54749;47.850;9.002;2022-10-28T00:37:23;96893.94;;;9.18
67966;BMP280;54749;47.850;9.002;2022-10-28T00:39:50;96905.34;;;9.25
67966;BMP280;54749;47.850;9.002;2022-10-28T00:42:20;96907.22;;;9.22
67966;BMP280;54749;47.850;9.002;2022-10-28T00:44:55;96909.06;;;9.18
67966;BMP280;54749;47.850;9.002;2022-10-28T00:53:01;96896.38;;;9.20
67966;BMP280;54749;47.850;9.002;2022-10-28T00:55:28;96907.28;;;9.20
67966;BMP280;54749;47.850;9.002;2022-10-28T00:57:57;96897.19;;;9.20
67966;BMP280;54749;47.850;9.002;2022-10-28T01:00:25;96903.13;;;9.19
67966;BMP280;54749;47.850;9.002;2022-10-28T01:02:52;96897.19;;;9.20
67966;BMP280;54749;47.850;9.002;2022-10-28T01:05:26;96890.34;;;9.22
67966;BMP280;54749;47.850;9.002;2022-10-28T01:07:57;96896.06;;;9.26
67966;BMP280;54749;47.850;9.002;2022-10-28T01:11:02;96891.00;;;9.26
67966;BMP280;54749;47.850;9.002;2022-10-28T01:13:38;96893.44;;;9.27
67966;BMP280;54749;47.850;9.002;2022-10-28T01:16:13;96891.00;;;9.26
67966;BMP280;54749;47.850;9.002;2022-10-28T01:34:53;96880.25;;;9.22
67966;BMP280;54749;47.850;9.002;2022-10-28T01:37:32;96885.47;;;9.19
67966;BMP280;54749;47.850;9.002;2022-10-28T01:45:24;96881.44;;;9.02
67966;BMP280;54749;47.850;9.002;2022-10-28T01:47:58;96876.59;;;8.99
67966;BMP280;54749;47.850;9.002;2022-10-28T01:50:37;96871.78;;;8.94
67966;BMP280;54749;47.850;9.002;2022-10-28T01:53:09;96876.91;;;8.93
67966;BMP280;54749;47.850;9.002;2022-10-28T01:55:40;96872.94;;;8.89
67966;BMP280;54749;47.850;9.002;2022-10-28T01:58:16;96870.59;;;8.86
67966;BMP280;54749;47.850;9.002;2022-10-28T02:00:45;96875.53;;;8.88
67966;BMP280;54749;47.850;9.002;2022-10-28T02:03:15;96879.69;;;8.89
67966;BMP280;54749;47.850;9.002;2022-10-28T02:05:45;96877.91;;;8.91
67966;BMP280;54749;47.850;9.002;2022-10-28T02:10:49;96881.88;;;8.79
67966;BMP280;54749;47.850;9.002;2022-10-28T02:13:27;96877.66;;;8.80
67966;BMP280;54749;47.850;9.002;2022-10-28T02:16:07;96870.03;;;8.81
67966;BMP280;54749;47.850;9.002;2022-10-28T02:22:19;96862.47;;;8.81
67966;BMP280;54749;47.850;9.002;2022-10-28T02:27:43;96859.19;;;8.79
67966;BMP280;54749;47.850;9.002;2022-10-28T02:30:27;96859.38;;;8.76
67966;BMP280;54749;47.850;9.002;2022-10-28T02:32:59;96853.69;;;8.73
67966;BMP280;54749;47.850;9.002;2022-10-28T02:35:45;96842.16;;;8.69
67966;BMP280;54749;47.850;9.002;2022-10-28T02:38:27;96861.00;;;8.62
67966;BMP280;54749;47.850;9.002;2022-10-28T02:41:00;96856.97;;;8.60
67966;BMP280;54749;47.850;9.002;2022-10-28T02:43:29;96858.72;;;8.58
67966;BMP280;54749;47.850;9.002;2022-10-28T02:45:59;96855.66;;;8.53
67966;BMP280;54749;47.850;9.002;2022-10-28T02:51:10;96867.78;;;8.47
67966;BMP280;54749;47.850;9.002;2022-10-28T02:54:01;96874.69;;;8.43
67966;BMP280;54749;47.850;9.002;2022-10-28T02:56:33;96868.09;;;8.41
67966;BMP280;54749;47.850;9.002;2022-10-28T02:59:02;96870.69;;;8.40
67966;BMP280;54749;47.850;9.002;2022-10-28T03:01:29;96871.59;;;8.39
67966;BMP280;54749;47.850;9.002;2022-10-28T03:03:56;96870.84;;;8.37
67966;BMP280;54749;47.850;9.002;2022-10-28T03:06:23;96871.50;;;8.40
67966;BMP280;54749;47.850;9.002;2022-10-28T03:08:49;96880.69;;;8.41
67966;BMP280;54749;47.850;9.002;2022-10-28T03:11:16;96879.03;;;8.40
67966;BMP280;54749;47.850;9.002;2022-10-28T03:13:44;96878.34;;;8.38
67966;BMP280;54749;47.850;9.002;2022-10-28T03:16:11;96871.72;;;8.36
67966;BMP280;54749;47.850;9.002;2022-10-28T03:18:38;96880.19;;;8.35
67966;BMP280;54749;47.850;9.002;2022-10-28T03:21:05;96871.91;;;8.33
67966;BMP280;54749;47.850;9.002;2022-10-28T03:23:32;96870.13;;;8.35
67966;BMP280;54749;47.850;9.002;2022-10-28T03:25:59;96868.91;;;8.41
67966;BMP280;54749;47.850;9.002;2022-10-28T03:28:25;96861.16;;;8.44
67966;BMP280;54749;47.850;9.002;2022-10-28T03:30:52;96868.72;;;8.44
67966;BMP280;54749;47.850;9.002;2022-10-28T03:33:19;96874.00;;;8.40
67966;BMP280;54749;47.850;9.002;2022-10-28T03:35:46;96863.16;;;8.40
67966;BMP280;54749;47.850;9.002;2022-10-28T03:38:12;96870.13;;;8.35
67966;BMP280;54749;47.850;9.002;2022-10-28T03:40:39;96862.72;;;8.32
67966;BMP280;54749;47.850;9.002;2022-10-28T03:43:06;96863.78;;;8.28
67966;BMP280;54749;47.850;9.002;2022-10-28T03:45:33;96862.31;;;8.24
67966;BMP280;54749;47.850;9.002;2022-10-28T03:48:00;96855.75;;;8.22
67966;BMP280;54749;47.850;9.002;2022-10-28T03:50:26;96864.91;;;8.22
67966;BMP280;54749;47.850;9.002;2022-10-28T03:52:53;96858.09;;;8.24
67966;BMP280;54749;47.850;9.002;2022-10-28T03:55:20;96850.28;;;8.29
67966;BMP280;54749;47.850;9.002;2022-10-28T03:57:49;96855.16;;;8.32
67966;BMP280;54749;47.850;9.002;2022-10-28T04:00:17;96855.50;;;8.26
67966;BMP280;54749;47.850;9.002;2022-10-28T04:02:51;96849.00;;;8.22
67966;BMP280;54749;47.850;9.002;2022-10-28T04:05:19;96855.63;;;8.23
67966;BMP280;54749;47.850;9.002;2022-10-28T04:07:46;96851.34;;;8.25
67966;BMP280;54749;47.850;9.002;2022-10-28T04:10:13;96847.78;;;8.29
67966;BMP280;54749;47.850;9.002;2022-10-28T04:12:40;96855.16;;;8.32
67966;BMP280;54749;47.850;9.002;2022-10-28T04:15:07;96859.25;;;8.34
67966;BMP280;54749;47.850;9.002;2022-10-28T04:17:34;96859.31;;;8.33
67966;BMP280;54749;47.850;9.002;2022-10-28T04:20:00;96855.97;;;8.32
67966;BMP280;54749;47.850;9.002;2022-10-28T04:22:28;96858.59;;;8.31
67966;BMP280;54749;47.850;9.002;2022-10-28T04:24:54;96871.09;;;8.32
67966;BMP280;54749;47.850;9.002;2022-10-28T04:27:21;96865.22;;;8.32
67966;BMP280;54749;47.850;9.002;2022-10-28T04:29:48;96859.00;;;8.39
67966;BMP280;54749;47.850;9.002;2022-10-28T04:32:15;96865.81;;;8.37
67966;BMP280;54749;47.850;9.002;2022-10-28T04:34:42;96861.66;;;8.36
67966;BMP280;54749;47.850;9.002;2022-10-28T04:37:09;96858.25;;;8.37
67966;BMP280;54749;47.850;9.002;2022-10-28T04:39:36;96860.63;;;8.40
67966;BMP280;54749;47.850;9.002;2022-10-28T04:42:02;96842.66;;;8.45
67966;BMP280;54749;47.850;9.002;2022-10-28T04:44:29;96846.06;;;8.44
67966;BMP280;54749;47.850;9.002;2022-10-28T04:46:56;96841.94;;;8.43
67966;BMP280;54749;47.850;9.002;2022-10-28T04:49:23;96845.28;;;8.44
67966;BMP280;54749;47.850;9.002;2022-10-28T04:51:50;96852.72;;;8.45
67966;BMP280;54749;47.850;9.002;2022-10-28T04:54:17;96850.06;;;8.48
67966;BMP280;54749;47.850;9.002;2022-10-28T04:56:43;96850.78;;;8.50
67966;BMP280;54749;47.850;9.002;2022-10-28T04:59:10;96854.13;;;8.51
67966;BMP280;54749;47.850;9.002;2022-10-28T05:01:37;96848.91;;;8.54
67966;BMP280;54749;47.850;9.002;2022-10-28T05:04:04;96854.03;;;8.52
67966;BMP280;54749;47.850;9.002;2022-10-28T05:06:31;96853.13;;;8.53
67966;BMP280;54749;47.850;9.002;2022-10-28T05:08:58;96848.91;;;8.54
67966;BMP280;54749;47.850;9.002;2022-10-28T05:11:24;96853.88;;;8.55
67966;BMP280;54749;47.850;9.002;2022-10-28T05:13:51;96852.09;;;8.57
67966;BMP280;54749;47.850;9.002;2022-10-28T05:16:19;96839.38;;;8.58
67966;BMP280;54749;47.850;9.002;2022-10-28T05:18:47;96846.88;;;8.60
67966;BMP280;54749;47.850;9.002;2022-10-28T05:21:13;96845.25;;;8.59
67966;BMP280;54749;47.850;9.002;2022-10-28T05:23:40;96842.72;;;8.59
67966;BMP280;54749;47.850;9.002;2022-10-28T05:26:07;96831.94;;;8.57
67966;BMP280;54749;47.850;9.002;2022-10-28T05:28:34;96832.19;;;8.53
67966;BMP280;54749;47.850;9.002;2022-10-28T05:31:01;96818.09;;;8.49
67966;BMP280;54749;47.850;9.002;2022-10-28T05:33:28;96834.03;;;8.49
67966;BMP280;54749;47.850;9.002;2022-10-28T05:36:01;96836.31;;;8.54
67966;BMP280;54749;47.850;9.002;2022-10-28T05:38:28;96822.88;;;8.53
67966;BMP280;54749;47.850;9.002;2022-10-28T05:40:55;96836.31;;;8.54
67966;BMP280;54749;47.850;9.002;2022-10-28T05:43:22;96838.94;;;8.52
67966;BMP280;54749;47.850;9.002;2022-10-28T05:45:53;96846.38;;;8.54
67966;BMP280;54749;47.850;9.002;2022-10-28T05:48:20;96841.09;;;8.58
67966;BMP280;54749;47.850;9.002;2022-10-28T05:50:47;96839.72;;;8.68
67966;BMP280;54749;47.850;9.002;2022-10-28T05:53:14;96848.72;;;8.72
67966;BMP280;54749;47.850;9.002;2022-10-28T05:55:41;96854.16;;;8.79
67966;BMP280;54749;47.850;9.002;2022-10-28T05:58:13;96852.44;;;8.80
67966;BMP280;54749;47.850;9.002;2022-10-28T06:00:40;96847.34;;;8.81
67966;BMP280;54749;47.850;9.002;2022-10-28T06:03:10;96855.63;;;8.83
67966;BMP280;54749;47.850;9.002;2022-10-28T06:05:41;96862.84;;;8.89
67966;BMP280;54749;47.850;9.002;2022-10-28T06:08:10;96848.94;;;8.97
67966;BMP280;54749;47.850;9.002;2022-10-28T06:10:39;96859.50;;;9.04
67966;BMP280;54749;47.850;9.002;2022-10-28T06:13:07;96865.00;;;9.10
67966;BMP280;54749;47.850;9.002;2022-10-28T06:15:34;96862.16;;;9.16
67966;BMP280;54749;47.850;9.002;2022-10-28T06:18:01;96859.28;;;9.22
67966;BMP280;54749;47.850;9.002;2022-10-28T06:20:28;96842.97;;;9.27
67966;BMP280;54749;47.850;9.002;2022-10-28T06:22:55;96856.06;;;9.33
67966;BMP280;54749;47.850;9.002;2022-10-28T06:25:24;96851.03;;;9.33
67966;BMP280;54749;47.850;9.002;2022-10-28T06:27:56;96851.59;;;9.38
67966;BMP280;54749;47.850;9.002;2022-10-28T06:30:25;96876.00;;;9.38
67966;BMP280;54749;47.850;9.002;2022-10-28T06:32:55;96870.94;;;9.38
67966;BMP280;54749;47.850;9.002;2022-10-28T06:35:22;96871.50;;;9.43
67966;BMP280;54749;47.850;9.002;2022-10-28T06:37:55;96867.72;;;9.49
67966;BMP280;54749;47.850;9.002;2022-10-28T06:40:24;96869.03;;;9.56
67966;BMP280;54749;47.850;9.002;2022-10-28T06:43:00;96861.25;;;9.59
67966;BMP280;54749;47.850;9.002;2022-10-28T06:45:28;96877.03;;;9.62
67966;BMP280;54749;47.850;9.002;2022-10-28T06:48:00;96870.81;;;9.68
67966;BMP280;54749;47.850;9.002;2022-10-28T06:50:28;96873.72;;;9.76
67966;BMP280;54749;47.850;9.002;2022-10-28T06:52:55;96874.22;;;9.82
67966;BMP280;54749;47.850;9.002;2022-10-28T06:55:24;96874.41;;;9.93
67966;BMP280;54749;47.850;9.002;2022-10-28T06:57:51;96872.88;;;10.04
67966;BMP280;54749;47.850;9.002;2022-10-28T07:00:19;96876.47;;;10.14
67966;BMP280;54749;47.850;9.002;2022-10-28T07:02:50;96873.50;;;10.21
67966;BMP280;54749;47.850;9.002;2022-10-28T07:05:18;96872.31;;;10.26
67966;BMP280;54749;47.850;9.002;2022-10-28T07:07:45;96877.91;;;10.31
67966;BMP280;54749;47.850;9.002;2022-10-28T07:10:12;96883.59;;;10.34
67966;BMP280;54749;47.850;9.002;2022-10-28T07:12:39;96882.94;;;10.31
67966;BMP280;54749;47.850;9.002;2022-10-28T07:15:06;96880.97;;;10.36
67966;BMP280;54749;47.850;9.002;2022-10-28T07:17:33;96887.78;;;10.48
67966;BMP280;54749;47.850;9.002;2022-10-28T07:20:00;96874.53;;;10.58
67966;BMP280;54749;47.850;9.002;2022-10-28T07:22:28;96876.78;;;10.62
67966;BMP280;54749;47.850;9.002;2022-10-28T07:24:54;96879.63;;;10.70
67966;BMP280;54749;47.850;9.002;2022-10-28T07:27:21;96875.38;;;10.70
67966;BMP280;54749;47.850;9.002;2022-10-28T07:29:48;96872.50;;;10.76
67966;BMP280;54749;47.850;9.002;2022-10-28T07:32:15;96876.53;;;10.79
67966;BMP280;54749;47.850;9.002;2022-10-28T07:34:42;96871.19;;;10.83
67966;BMP280;54749;47.850;9.002;2022-10-28T07:37:10;96873.28;;;10.90
67966;BMP280;54749;47.850;9.002;2022-10-28T07:39:38;96886.94;;;11.00
67966;BMP280;54749;47.850;9.002;2022-10-28T07:42:05;96882.53;;;11.03
67966;BMP280;54749;47.850;9.002;2022-10-28T07:44:32;96882.25;;;11.08
67966;BMP280;54749;47.850;9.002;2022-10-28T07:46:58;96897.84;;;11.14
67966;BMP280;54749;47.850;9.002;2022-10-28T07:49:25;96887.13;;;11.23
67966;BMP280;54749;47.850;9.002;2022-10-28T07:51:52;96892.16;;;11.37
67966;BMP280;54749;47.850;9.002;2022-10-28T07:54:19;96892.72;;;11.54
67966;BMP280;54749;47.850;9.002;2022-10-28T07:56:46;96903.97;;;11.74
67966;BMP280;54749;47.850;9.002;2022-10-28T07:59:13;96899.34;;;11.92
67966;BMP280;54749;47.850;9.002;2022-10-28T08:01:40;96888.22;;;12.07
67966;BMP280;54749;47.850;9.002;2022-10-28T08:04:07;96890.41;;;12.24
67966;BMP280;54749;47.850;9.002;2022-10-28T08:06:34;96894.75;;;12.34
67966;BMP280;54749;47.850;9.002;2022-10-28T08:09:02;96891.28;;;12.47
67966;BMP280;54749;47.850;9.002;2022-10-28T08:11:29;96901.72;;;12.55
67966;BMP280;54749;47.850;9.002;2022-10-28T08:13:56;96886.03;;;12.62
67966;BMP280;54749;47.850;9.002;2022-10-28T08:16:23;96884.66;;;12.69
67966;BMP280;54749;47.850;9.002;2022-10-28T08:18:50;96878.47;;;12.73
67966;BMP280;54749;47.850;9.002;2022-10-28T08:21:18;96898.13;;;12.81
67966;BMP280;54749;47.850;9.002;2022-10-28T08:23:45;96894.94;;;12.90
67966;BMP280;54749;47.850;9.002;2022-10-28T08:26:14;96901.13;;;12.98
67966;BMP280;54749;47.850;9.002;2022-10-28T08:28:41;96899.03;;;13.15
67966;BMP280;54749;47.850;9.002;2022-10-28T08:31:09;96902.00;;;13.32
67966;BMP280;54749;47.850;9.002;2022-10-28T08:33:41;96885.44;;;13.50
67966;BMP280;54749;47.850;9.002;2022-10-28T08:36:15;96893.34;;;13.68
67966;BMP280;54749;47.850;9.002;2022-10-28T08:38:43;96899.06;;;13.83
67966;BMP280;54749;47.850;9.002;2022-10-28T08:41:27;96884.09;;;14.01
67966;BMP280;54749;47.850;9.002;2022-10-28T08:47:05;96879.16;;;14.53
67966;BMP280;54749;47.850;9.002;2022-10-28T08:49:38;96885.28;;;14.93
67966;BMP280;54749;47.850;9.002;2022-10-28T08:52:33;96873.44;;;15.34
67966;BMP280;54749;47.850;9.002;2022-10-28T08:55:17;96871.94;;;15.62
67966;BMP280;54749;47.850;9.002;2022-10-28T08:57:51;96868.00;;;15.78
67966;BMP280;54749;47.850;9.002;2022-10-28T09:00:22;96868.28;;;15.95
67966;BMP280;54749;47.850;9.002;2022-10-28T09:03:10;96866.44;;;16.26
67966;BMP280;54749;47.850;9.002;2022-10-28T09:05:39;96880.81;;;16.56
67966;BMP280;54749;47.850;9.002;2022-10-28T09:08:26;96879.16;;;16.84
67966;BMP280;54749;47.850;9.002;2022-10-28T09:13:55;96878.59;;;17.38
67966;BMP280;54749;47.850;9.002;2022-10-28T09:22:14;96868.84;;;18.24
67966;BMP280;54749;47.850;9.002;2022-10-28T09:30:24;96860.03;;;20.17
67966;BMP280;54749;47.850;9.002;2022-10-28T09:35:49;96850.59;;;21.15
67966;BMP280;54749;47.850;9.002;2022-10-28T09:38:29;96848.88;;;21.70
67966;BMP280;54749;47.850;9.002;2022-10-28T09:41:01;96837.19;;;21.99
67966;BMP280;54749;47.850;9.002;2022-10-28T09:43:32;96831.78;;;22.31
67966;BMP280;54749;47.850;9.002;2022-10-28T09:46:14;96834.28;;;23.00
67966;BMP280;54749;47.850;9.002;2022-10-28T09:48:50;96849.66;;;24.33
67966;BMP280;54749;47.850;9.002;2022-10-28T09:51:38;96821.63;;;26.50
67966;BMP280;54749;47.850;9.002;2022-10-28T09:54:10;96822.09;;;28.96
67966;BMP280;54749;47.850;9.002;2022-10-28T09:56:38;96813.28;;;30.89
67966;BMP280;54749;47.850;9.002;2022-10-28T09:59:06;96822.53;;;31.95
67966;BMP280;54749;47.850;9.002;2022-10-28T10:01:35;96812.44;;;32.21
67966;BMP280;54749;47.850;9.002;2022-10-28T10:04:16;96832.59;;;31.34
67966;BMP280;54749;47.850;9.002;2022-10-28T10:06:44;96834.81;;;31.20
67966;BMP280;54749;47.850;9.002;2022-10-28T10:09:20;96838.16;;;31.27
67966;BMP280;54749;47.850;9.002;2022-10-28T10:11:51;96837.09;;;30.58
67966;BMP280;54749;47.850;9.002;2022-10-28T10:14:37;96812.19;;;30.96
67966;BMP280;54749;47.850;9.002;2022-10-28T10:17:11;96818.38;;;31.30
67966;BMP280;54749;47.850;9.002;2022-10-28T10:22:34;96815.38;;;31.62
67966;BMP280;54749;47.850;9.002;2022-10-28T10:25:10;96829.63;;;32.06
67966;BMP280;54749;47.850;9.002;2022-10-28T10:27:59;96798.47;;;32.60
67966;BMP280;54749;47.850;9.002;2022-10-28T10:30:32;96822.41;;;32.86
67966;BMP280;54749;47.850;9.002;2022-10-28T10:33:00;96824.53;;;32.78
67966;BMP280;54749;47.850;9.002;2022-10-28T10:35:33;96806.78;;;32.80
67966;BMP280;54749;47.850;9.002;2022-10-28T10:38:02;96806.06;;;31.95
67966;BMP280;54749;47.850;9.002;2022-10-28T10:40:32;96833.78;;;31.56
67966;BMP280;54749;47.850;9.002;2022-10-28T10:48:24;96862.22;;;28.19
67966;BMP280;54749;47.850;9.002;2022-10-28T10:50:51;96861.34;;;26.83
67966;BMP280;54749;47.850;9.002;2022-10-28T10:53:22;96869.38;;;25.87
67966;BMP280;54749;47.850;9.002;2022-10-28T10:58:24;96851.38;;;26.27
67966;BMP280;54749;47.850;9.002;2022-10-28T11:00:54;96838.63;;;27.31
67966;BMP280;54749;47.850;9.002;2022-10-28T11:03:25;96834.53;;;27.03
67966;BMP280;54749;47.850;9.002;2022-10-28T11:05:55;96835.03;;;26.33
67966;BMP280;54749;47.850;9.002;2022-10-28T11:08:43;96838.91;;;25.55
67966;BMP280;54749;47.850;9.002;2022-10-28T11:11:18;96844.22;;;25.27
67966;BMP280;54749;47.850;9.002;2022-10-28T11:13:47;96850.72;;;25.09
67966;BMP280;54749;47.850;9.002;2022-10-28T11:16:22;96836.66;;;24.69
67966;BMP280;54749;47.850;9.002;2022-10-28T11:18:51;96833.81;;;24.50
67966;BMP280;54749;47.850;9.002;2022-10-28T11:21:44;96829.06;;;24.39
67966;BMP280;54749;47.850;9.002;2022-10-28T11:24:23;96816.53;;;24.00
67966;BMP280;54749;47.850;9.002;2022-10-28T11:29:33;96829.66;;;22.96
67966;BMP280;54749;47.850;9.002;2022-10-28T11:32:16;96831.56;;;22.56
67966;BMP280;54749;47.850;9.002;2022-10-28T11:35:22;96815.84;;;22.36
67966;BMP280;54749;47.850;9.002;2022-10-28T11:49:36;96799.75;;;23.38
67966;BMP280;54749;47.850;9.002;2022-10-28T11:52:41;96796.53;;;23.58
67966;BMP280;54749;47.850;9.002;2022-10-28T12:01:05;96782.78;;;24.02
67966;BMP280;54749;47.850;9.002;2022-10-28T12:09:05;96769.16;;;23.06
67966;BMP280;54749;47.850;9.002;2022-10-28T12:11:50;96771.91;;;22.75
67966;BMP280;54749;47.850;9.002;2022-10-28T12:17:06;96765.81;;;22.68
67966;BMP280;54749;47.850;9.002;2022-10-28T12:20:02;96769.63;;;22.80
67966;BMP280;54749;47.850;9.002;2022-10-28T12:22:43;96764.03;;;22.98
67966;BMP280;54749;47.850;9.002;2022-10-28T12:25:17;96758.09;;;23.19
67966;BMP280;54749;47.850;9.002;2022-10-28T12:27:57;96757.59;;;23.46
67966;BMP280;54749;47.850;9.002;2022-10-28T12:30:33;96759.41;;;23.59
67966;BMP280;54749;47.850;9.002;2022-10-28T12:33:14;96756.56;;;23.54
67966;BMP280;54749;47.850;9.002;2022-10-28T12:35:48;96752.59;;;23.44
67966;BMP280;54749;47.850;9.002;2022-10-28T12:38:32;96755.63;;;23.48
67966;BMP280;54749;47.850;9.002;2022-10-28T12:41:11;96754.31;;;23.52
67966;BMP280;54749;47.850;9.002;2022-10-28T12:43:52;96741.78;;;23.27
67966;BMP280;54749;47.850;9.002;2022-10-28T12:49:38;96746.97;;;22.97
67966;BMP280;54749;47.850;9.002;2022-10-28T12:52:16;96755.09;;;23.08
67966;BMP280;54749;47.850;9.002;2022-10-28T12:54:53;96754.34;;;23.00
67966;BMP280;54749;47.850;9.002;2022-10-28T12:57:23;96747.72;;;22.76
67966;BMP280;54749;47.850;9.002;2022-10-28T13:03:00;96755.63;;;22.74
67966;BMP280;54749;47.850;9.002;2022-10-28T13:05:35;96755.16;;;22.71
67966;BMP280;54749;47.850;9.002;2022-10-28T13:14:04;96749.88;;;22.94
67966;BMP280;54749;47.850;9.002;2022-10-28T13:19:23;96738.81;;;23.08
67966;BMP280;54749;47.850;9.002;2022-10-28T13:24:39;96738.78;;;23.16
67966;BMP280;54749;47.850;9.002;2022-10-28T13:27:11;96742.94;;;23.17
67966;BMP280;54749;47.850;9.002;2022-10-28T13:29:40;96737.56;;;23.04
67966;BMP280;54749;47.850;9.002;2022-10-28T13:32:35;96739.59;;;22.86
67966;BMP280;54749;47.850;9.002;2022-10-28T13:35:20;96750.34;;;22.68
67966;BMP280;54749;47.850;9.002;2022-10-28T13:37:50;96746.03;;;22.53
67966;BMP280;54749;47.850;9.002;2022-10-28T13:42:58;96758.91;;;22.15
67966;BMP280;54749;47.850;9.002;2022-10-28T13:45:51;96747.69;;;22.01
67966;BMP280;54749;47.850;9.002;2022-10-28T13:53:52;96747.06;;;21.76
67966;BMP280;54749;47.850;9.002;2022-10-28T13:56:44;96747.38;;;21.65
67966;BMP280;54749;47.850;9.002;2022-10-28T14:04:35;96757.03;;;21.40
67966;BMP280;54749;47.850;9.002;2022-10-28T14:09:37;96753.34;;;21.19
67966;BMP280;54749;47.850;9.002;2022-10-28T14:12:26;96745.41;;;21.05
67966;BMP280;54749;47.850;9.002;2022-10-28T14:17:37;96761.16;;;20.94
67966;BMP280;54749;47.850;9.002;2022-10-28T14:20:17;96764.03;;;20.91
67966;BMP280;54749;47.850;9.002;2022-10-28T14:22:45;96754.88;;;20.88
67966;BMP280;54749;47.850;9.002;2022-10-28T14:33:48;96740.16;;;20.50
67966;BMP280;54749;47.850;9.002;2022-10-28T14:37:11;96745.91;;;20.44
67966;BMP280;54749;47.850;9.002;2022-10-28T14:40:07;96754.88;;;20.33
67966;BMP280;54749;47.850;9.002;2022-10-28T14:42:49;96750.75;;;20.22
67966;BMP280;54749;47.850;9.002;2022-10-28T14:45:39;96753.16;;;20.16
67966;BMP280;54749;47.850;9.002;2022-10-28T14:50:44;96743.16;;;20.05
67966;BMP280;54749;47.850;9.002;2022-10-28T14:53:17;96747.56;;;19.96
67966;BMP280;54749;47.850;9.002;2022-10-28T14:55:48;96757.44;;;19.83
67966;BMP280;54749;47.850;9.002;2022-10-28T14:58:22;96767.31;;;19.70
67966;BMP280;54749;47.850;9.002;2022-10-28T15:01:01;96751.22;;;19.61
67966;BMP280;54749;47.850;9.002;2022-10-28T15:03:31;96756.69;;;19.48
67966;BMP280;54749;47.850;9.002;2022-10-28T15:06:23;96761.13;;;19.39
67966;BMP280;54749;47.850;9.002;2022-10-28T15:08:50;96761.47;;;19.27
67966;BMP280;54749;47.850;9.002;2022-10-28T15:11:18;96757.41;;;19.16
67966;BMP280;54749;47.850;9.002;2022-10-28T15:13:52;96750.88;;;19.05
67966;BMP280;54749;47.850;9.002;2022-10-28T15:16:24;96764.72;;;18.94
67966;BMP280;54749;47.850;9.002;2022-10-28T15:18:52;96758.88;;;18.85
67966;BMP280;54749;47.850;9.002;2022-10-28T15:21:21;96763.41;;;18.74
67966;BMP280;54749;47.850;9.002;2022-10-28T15:24:00;96752.13;;;18.58
67966;BMP280;54749;47.850;9.002;2022-10-28T15:26:27;96748.72;;;18.40
67966;BMP280;54749;47.850;9.002;2022-10-28T15:28:54;96758.88;;;18.32
67966;BMP280;54749;47.850;9.002;2022-10-28T15:31:21;96758.38;;;18.29
67966;BMP280;54749;47.850;9.002;2022-10-28T15:33:48;96755.41;;;18.24
67966;BMP280;54749;47.850;9.002;2022-10-28T15:38:49;96753.09;;;18.04
67966;BMP280;54749;47.850;9.002;2022-10-28T15:44:00;96750.88;;;17.83
67966;BMP280;54749;47.850;9.002;2022-10-28T15:46:28;96754.50;;;17.71
67966;BMP280;54749;47.850;9.002;2022-10-28T15:48:58;96762.34;;;17.60
67966;BMP280;54749;47.850;9.002;2022-10-28T15:51:25;96759.13;;;17.49
67966;BMP280;54749;47.850;9.002;2022-10-28T15:54:09;96749.47;;;17.34
67966;BMP280;54749;47.850;9.002;2022-10-28T15:56:54;96764.81;;;17.16
67966;BMP280;54749;47.850;9.002;2022-10-28T15:59:23;96772.63;;;17.05
67966;BMP280;54749;47.850;9.002;2022-10-28T16:01:50;96766.81;;;16.94
67966;BMP280;54749;47.850;9.002;2022-10-28T16:06:56;96775.13;;;16.77
67966;BMP280;54749;47.850;9.002;2022-10-28T16:09:41;96773.91;;;16.72
67966;BMP280;54749;47.850;9.002;2022-10-28T16:12:17;96761.13;;;16.63
67966;BMP280;54749;47.850;9.002;2022-10-28T16:15:03;96762.72;;;16.54
67966;BMP280;54749;47.850;9.002;2022-10-28T16:17:34;96768.59;;;16.46
67966;BMP280;54749;47.850;9.002;2022-10-28T16:22:40;96767.22;;;16.23
67966;BMP280;54749;47.850;9.002;2022-10-28T16:25:12;96767.31;;;16.13
67966;BMP280;54749;47.850;9.002;2022-10-28T16:27:39;96786.84;;;16.03
67966;BMP280;54749;47.850;9.002;2022-10-28T16:30:07;96779.50;;;15.89
67966;BMP280;54749;47.850;9.002;2022-10-28T16:32:42;96790.72;;;15.77
67966;BMP280;54749;47.850;9.002;2022-10-28T16:35:16;96785.72;;;15.67
67966;BMP280;54749;47.850;9.002;2022-10-28T16:37:44;96786.03;;;15.53
67966;BMP280;54749;47.850;9.002;2022-10-28T16:40:16;96783.78;;;15.40
67966;BMP280;54749;47.850;9.002;2022-10-28T16:43:03;96792.53;;;15.26
67966;BMP280;54749;47.850;9.002;2022-10-28T16:45:30;96793.28;;;15.18
67966;BMP280;54749;47.850;9.002;2022-10-28T16:47:57;96806.50;;;15.12
67966;BMP280;54749;47.850;9.002;2022-10-28T16:50:24;96800.38;;;15.04
67966;BMP280;54749;47.850;9.002;2022-10-28T16:52:50;96801.94;;;14.95
67966;BMP280;54749;47.850;9.002;2022-10-28T16:55:19;96795.09;;;14.85
67966;BMP280;54749;47.850;9.002;2022-10-28T16:57:46;96797.22;;;14.80
67966;BMP280;54749;47.850;9.002;2022-10-28T17:00:13;96797.69;;;14.74
67966;BMP280;54749;47.850;9.002;2022-10-28T17:02:40;96799.78;;;14.70
67966;BMP280;54749;47.850;9.002;2022-10-28T17:05:17;96803.50;;;14.66
67966;BMP280;54749;47.850;9.002;2022-10-28T17:07:45;96815.41;;;14.65
67966;BMP280;54749;47.850;9.002;2022-10-28T17:10:14;96815.75;;;14.61
67966;BMP280;54749;47.850;9.002;2022-10-28T17:12:41;96813.81;;;14.54
67966;BMP280;54749;47.850;9.002;2022-10-28T17:15:08;96811.63;;;14.49